createdAt,value
2022-10-26T00:01:28.173Z,14.00
2022-10-26T00:03:57.811Z,14.00
2022-10-26T00:06:28.801Z,14.00
2022-10-26T00:08:59.241Z,14.10
2022-10-26T00:11:28.063Z,14.00
2022-10-26T00:13:57.194Z,14.00
2022-10-26T00:16:28.547Z,14.00
2022-10-26T00:18:57.452Z,14.00
2022-10-26T00:21:26.966Z,14.00
2022-10-26T00:23:55.678Z,14.00
2022-10-26T00:26:25.897Z,14.10
2022-10-26T00:28:55.754Z,14.00
2022-10-26T00:31:25.160Z,14.00
2022-10-26T00:33:54.726Z,14.00
2022-10-26T00:36:24.838Z,14.00
2022-10-26T00:38:55.319Z,14.00
2022-10-26T00:41:28.050Z,14.00
2022-10-26T00:43:57.778Z,14.00
2022-10-26T00:46:31.498Z,14.00
2022-10-26T00:49:05.403Z,14.00
2022-10-26T00:51:39.300Z,14.00
2022-10-26T00:54:13.450Z,14.00
2022-10-26T00:56:43.869Z,13.90
2022-10-26T00:59:15.962Z,13.90
2022-10-26T01:01:47.607Z,13.90
2022-10-26T01:04:18.227Z,13.90
2022-10-26T01:06:48.070Z,13.90
2022-10-26T01:09:17.890Z,13.90
2022-10-26T01:11:47.931Z,13.80
2022-10-26T01:14:20.158Z,13.80
2022-10-26T01:17:00.831Z,13.80
2022-10-26T01:20:07.504Z,13.80
2022-10-26T01:22:41.095Z,13.80
2022-10-26T01:25:27.835Z,13.80
2022-10-26T01:27:58.672Z,13.80
2022-10-26T01:30:36.860Z,13.80
2022-10-26T01:33:22.661Z,13.80
2022-10-26T01:36:01.323Z,13.70
2022-10-26T01:38:35.945Z,13.70
2022-10-26T01:41:13.024Z,13.70
2022-10-26T01:43:47.015Z,13.70
2022-10-26T01:48:56.991Z,13.70
2022-10-26T01:51:27.609Z,13.70
2022-10-26T01:53:58.832Z,13.70
2022-10-26T01:56:30.066Z,13.80
2022-10-26T01:59:18.955Z,13.80
2022-10-26T02:02:14.179Z,13.80
2022-10-26T02:04:53.504Z,13.80
2022-10-26T02:07:31.570Z,13.80
2022-10-26T02:10:07.925Z,13.80
2022-10-26T02:12:44.930Z,13.80
2022-10-26T02:15:21.692Z,13.90
2022-10-26T02:18:00.186Z,13.90
2022-10-26T02:20:34.082Z,13.90
2022-10-26T02:23:06.386Z,13.90
2022-10-26T02:25:39.723Z,13.90
2022-10-26T02:28:12.832Z,13.90
2022-10-26T02:30:44.942Z,13.90
2022-10-26T02:33:16.187Z,13.90
2022-10-26T02:35:49.024Z,13.90
2022-10-26T02:38:20.106Z,13.90
2022-10-26T02:40:51.147Z,13.90
2022-10-26T02:43:23.041Z,14.00
2022-10-26T02:45:55.266Z,14.00
2022-10-26T02:48:25.666Z,14.00
2022-10-26T02:51:01.187Z,14.00
2022-10-26T02:53:34.751Z,14.00
2022-10-26T02:56:09.184Z,14.00
2022-10-26T02:58:43.469Z,14.00
2022-10-26T03:01:13.709Z,14.00
2022-10-26T03:03:44.198Z,14.00
2022-10-26T03:06:13.317Z,14.00
2022-10-26T03:08:42.292Z,14.00
2022-10-26T03:11:11.375Z,14.00
2022-10-26T03:13:40.491Z,14.00
2022-10-26T03:16:10.027Z,14.10
2022-10-26T03:18:39.059Z,14.10
2022-10-26T03:21:09.364Z,14.10
2022-10-26T03:23:38.223Z,14.10
2022-10-26T03:26:07.290Z,14.10
2022-10-26T03:28:36.285Z,14.10
2022-10-26T03:31:05.230Z,14.10
2022-10-26T03:33:34.291Z,14.20
2022-10-26T03:36:03.390Z,14.10
2022-10-26T03:38:33.707Z,14.20
2022-10-26T03:41:02.747Z,14.20
2022-10-26T03:43:31.729Z,14.20
2022-10-26T03:46:00.870Z,14.20
2022-10-26T03:48:29.793Z,14.20
2022-10-26T03:51:00.194Z,14.30
2022-10-26T03:53:29.049Z,14.30
2022-10-26T03:55:59.303Z,14.30
2022-10-26T03:58:28.628Z,14.30
2022-10-26T04:00:57.504Z,14.30
2022-10-26T04:03:26.621Z,14.40
2022-10-26T04:05:55.710Z,14.40
2022-10-26T04:08:24.688Z,14.40
2022-10-26T04:10:53.669Z,14.40
2022-10-26T04:13:24.296Z,14.40
2022-10-26T04:15:53.319Z,14.50
2022-10-26T04:18:22.332Z,14.50
2022-10-26T04:20:51.594Z,14.50
2022-10-26T04:23:21.005Z,14.60
2022-10-26T04:25:50.148Z,14.50
2022-10-26T04:28:19.014Z,14.50
2022-10-26T04:30:50.154Z,14.60
2022-10-26T04:33:19.254Z,14.60
2022-10-26T04:35:48.181Z,14.60
2022-10-26T04:38:16.795Z,14.60
2022-10-26T04:40:45.525Z,14.60
2022-10-26T04:43:14.420Z,14.70
2022-10-26T04:45:44.025Z,14.60
2022-10-26T04:48:15.237Z,14.70
2022-10-26T04:50:44.029Z,14.70
2022-10-26T04:53:13.261Z,14.70
2022-10-26T04:55:42.201Z,14.70
2022-10-26T04:58:20.168Z,14.70
2022-10-26T05:00:49.099Z,14.70
2022-10-26T05:03:20.198Z,14.70
2022-10-26T05:05:49.322Z,14.80
2022-10-26T05:08:18.186Z,14.80
2022-10-26T05:10:49.799Z,14.80
2022-10-26T05:13:18.747Z,14.80
2022-10-26T05:15:47.908Z,14.80
2022-10-26T05:18:17.211Z,14.90
2022-10-26T05:20:51.147Z,14.90
2022-10-26T05:23:20.256Z,14.90
2022-10-26T05:25:50.119Z,14.80
2022-10-26T05:28:19.706Z,14.90
2022-10-26T05:31:02.716Z,14.90
2022-10-26T05:33:31.691Z,14.90
2022-10-26T05:36:01.947Z,14.90
2022-10-26T05:38:30.925Z,14.90
2022-10-26T05:41:01.190Z,14.90
2022-10-26T05:43:30.303Z,14.90
2022-10-26T05:45:59.492Z,14.80
2022-10-26T05:48:28.530Z,14.80
2022-10-26T05:51:01.787Z,14.70
2022-10-26T05:53:31.834Z,14.70
2022-10-26T05:56:01.501Z,14.70
2022-10-26T05:58:31.123Z,14.60
2022-10-26T06:01:13.187Z,14.60
2022-10-26T06:03:57.668Z,14.60
2022-10-26T06:06:30.704Z,14.60
2022-10-26T06:09:00.275Z,14.60
2022-10-26T06:11:29.996Z,14.60
2022-10-26T06:14:01.161Z,14.60
2022-10-26T06:16:39.733Z,14.70
2022-10-26T06:19:18.292Z,14.70
2022-10-26T06:22:03.361Z,14.70
2022-10-26T06:24:39.896Z,14.70
2022-10-26T06:27:19.689Z,14.80
2022-10-26T06:29:57.051Z,14.80
2022-10-26T06:32:26.407Z,14.80
2022-10-26T06:35:06.958Z,14.80
2022-10-26T06:37:39.966Z,14.80
2022-10-26T06:40:11.484Z,14.80
2022-10-26T06:42:41.073Z,14.90
2022-10-26T06:47:50.496Z,14.90
2022-10-26T06:50:31.139Z,14.90
2022-10-26T06:53:12.317Z,15.00
2022-10-26T06:55:44.715Z,15.00
2022-10-26T06:58:16.843Z,15.00
2022-10-26T07:00:47.582Z,15.10
2022-10-26T07:03:16.438Z,15.10
2022-10-26T07:05:45.984Z,15.10
2022-10-26T07:08:16.295Z,15.20
2022-10-26T07:10:45.307Z,15.20
2022-10-26T07:13:14.431Z,15.20
2022-10-26T07:15:43.550Z,15.20
2022-10-26T07:18:12.403Z,15.20
2022-10-26T07:20:42.473Z,15.20
2022-10-26T07:23:12.093Z,15.20
2022-10-26T07:25:42.675Z,15.20
2022-10-26T07:28:12.035Z,15.30
2022-10-26T07:30:41.367Z,15.30
2022-10-26T07:33:12.141Z,15.30
2022-10-26T07:35:41.708Z,15.30
2022-10-26T07:38:10.601Z,15.30
2022-10-26T07:40:39.338Z,15.30
2022-10-26T07:43:09.819Z,15.40
2022-10-26T07:46:07.178Z,15.40
2022-10-26T07:48:36.225Z,15.40
2022-10-26T07:51:05.661Z,15.50
2022-10-26T07:53:34.606Z,15.50
2022-10-26T07:56:03.753Z,15.50
2022-10-26T07:58:34.317Z,15.50
2022-10-26T08:01:07.590Z,15.50
2022-10-26T08:03:37.262Z,15.50
2022-10-26T08:06:07.602Z,15.50
2022-10-26T08:08:36.932Z,15.60
2022-10-26T08:11:07.326Z,15.60
2022-10-26T08:13:37.655Z,15.60
2022-10-26T08:16:07.859Z,15.60
2022-10-26T08:18:36.876Z,15.60
2022-10-26T08:21:11.304Z,15.60
2022-10-26T08:23:41.793Z,15.60
2022-10-26T08:26:11.812Z,15.60
2022-10-26T08:28:42.581Z,15.70
2022-10-26T08:31:12.058Z,15.70
2022-10-26T08:33:44.856Z,15.70
2022-10-26T08:36:19.795Z,15.70
2022-10-26T08:38:49.556Z,15.70
2022-10-26T08:41:21.498Z,15.80
2022-10-26T08:43:57.466Z,15.80
2022-10-26T08:46:32.183Z,15.80
2022-10-26T08:49:06.125Z,15.80
2022-10-26T08:51:37.968Z,15.90
2022-10-26T08:54:13.832Z,15.90
2022-10-26T08:56:49.995Z,15.90
2022-10-26T08:59:32.075Z,15.90
2022-10-26T09:02:02.738Z,15.90
2022-10-26T09:04:34.067Z,15.90
2022-10-26T09:07:10.169Z,15.90
2022-10-26T09:09:47.817Z,15.90
2022-10-26T09:12:27.256Z,15.90
2022-10-26T09:15:09.970Z,15.90
2022-10-26T09:17:48.644Z,15.90
2022-10-26T09:20:44.197Z,15.90
2022-10-26T09:23:27.552Z,15.90
2022-10-26T09:26:00.820Z,15.90
2022-10-26T09:28:34.397Z,16.00
2022-10-26T09:31:05.797Z,16.00
2022-10-26T09:33:40.232Z,16.10
2022-10-26T09:36:15.974Z,16.20
2022-10-26T09:38:50.232Z,16.30
2022-10-26T09:41:29.519Z,16.40
2022-10-26T09:44:07.785Z,16.60
2022-10-26T09:46:49.323Z,16.70
2022-10-26T09:49:21.121Z,17.00
2022-10-26T09:51:50.993Z,17.20
2022-10-26T09:54:21.761Z,17.40
2022-10-26T09:56:55.031Z,17.60
2022-10-26T09:59:26.570Z,17.80
2022-10-26T10:01:57.194Z,18.00
2022-10-26T10:04:26.650Z,18.30
2022-10-26T10:07:15.012Z,18.50
2022-10-26T10:09:44.002Z,18.70
2022-10-26T10:12:21.288Z,19.00
2022-10-26T10:15:00.466Z,19.20
2022-10-26T10:17:30.959Z,19.30
2022-10-26T10:20:12.747Z,19.50
2022-10-26T10:22:55.820Z,19.60
2022-10-26T10:25:34.853Z,19.80
2022-10-26T10:30:57.209Z,20.30
2022-10-26T10:33:36.480Z,20.50
2022-10-26T10:36:09.116Z,20.60
2022-10-26T10:38:43.949Z,20.60
2022-10-26T10:41:22.879Z,20.60
2022-10-26T10:43:54.964Z,20.80
2022-10-26T10:46:27.781Z,20.90
2022-10-26T10:49:05.438Z,21.10
2022-10-26T10:51:40.507Z,21.30
2022-10-26T10:54:22.023Z,21.60
2022-10-26T10:56:54.863Z,22.10
2022-10-26T10:59:52.074Z,22.40
2022-10-26T11:02:44.676Z,22.70
2022-10-26T11:05:37.611Z,22.90
2022-10-26T11:08:10.209Z,23.00
2022-10-26T11:10:47.202Z,23.20
2022-10-26T11:13:21.145Z,23.50
2022-10-26T11:15:54.056Z,23.80
2022-10-26T11:18:27.925Z,24.20
2022-10-26T11:21:07.763Z,24.70
2022-10-26T11:23:43.593Z,25.00
2022-10-26T11:26:16.708Z,25.40
2022-10-26T11:28:51.100Z,25.80
2022-10-26T11:31:26.870Z,26.10
2022-10-26T11:34:13.436Z,26.20
2022-10-26T11:36:49.052Z,26.10
2022-10-26T11:39:23.471Z,25.90
2022-10-26T11:41:58.183Z,25.50
2022-10-26T11:44:34.523Z,25.20
2022-10-26T11:47:08.392Z,24.90
2022-10-26T11:49:44.387Z,24.80
2022-10-26T11:52:19.168Z,24.90
2022-10-26T11:54:54.252Z,24.90
2022-10-26T11:57:24.961Z,24.80
2022-10-26T11:59:58.312Z,24.60
2022-10-26T12:02:27.767Z,24.50
2022-10-26T12:05:03.666Z,24.40
2022-10-26T12:07:36.838Z,24.20
2022-10-26T12:10:23.800Z,24.00
2022-10-26T12:12:59.832Z,23.80
2022-10-26T12:15:40.362Z,23.60
2022-10-26T12:18:50.231Z,23.40
2022-10-26T12:21:17.144Z,23.40
2022-10-26T12:23:59.714Z,23.30
2022-10-26T12:26:53.943Z,23.20
2022-10-26T12:29:37.050Z,23.10
2022-10-26T12:32:50.473Z,23.00
2022-10-26T12:35:43.447Z,22.90
2022-10-26T12:38:44.406Z,22.70
2022-10-26T12:41:23.044Z,22.50
2022-10-26T12:43:57.825Z,22.40
2022-10-26T12:46:42.028Z,22.30
2022-10-26T12:49:59.358Z,22.20
2022-10-26T12:52:51.179Z,22.10
2022-10-26T12:55:56.237Z,22.00
2022-10-26T12:59:04.941Z,21.90
2022-10-26T13:02:08.805Z,21.80
2022-10-26T13:05:17.526Z,21.80
2022-10-26T13:07:47.518Z,21.70
2022-10-26T13:10:23.317Z,21.70
2022-10-26T13:12:54.909Z,21.70
2022-10-26T13:15:28.631Z,21.70
2022-10-26T13:18:03.074Z,21.60
2022-10-26T13:20:33.462Z,21.60
2022-10-26T13:23:03.634Z,21.50
2022-10-26T13:25:33.380Z,21.60
2022-10-26T13:28:06.097Z,21.50
2022-10-26T13:30:49.808Z,21.50
2022-10-26T13:33:34.109Z,21.40
2022-10-26T13:36:12.532Z,21.40
2022-10-26T13:38:42.086Z,21.30
2022-10-26T13:41:23.828Z,21.20
2022-10-26T13:43:54.104Z,21.20
2022-10-26T13:46:37.745Z,21.10
2022-10-26T13:49:14.625Z,21.10
2022-10-26T13:51:48.041Z,21.10
2022-10-26T13:54:24.339Z,21.10
2022-10-26T13:57:15.196Z,21.10
2022-10-26T13:59:46.319Z,21.00
2022-10-26T14:02:24.421Z,21.00
2022-10-26T14:04:55.096Z,21.00
2022-10-26T14:07:37.097Z,20.90
2022-10-26T14:10:07.083Z,20.90
2022-10-26T14:12:36.311Z,20.90
2022-10-26T14:15:09.337Z,20.90
2022-10-26T14:17:41.445Z,20.90
2022-10-26T14:20:19.379Z,20.90
2022-10-26T14:22:48.425Z,20.90
2022-10-26T14:25:26.718Z,20.80
2022-10-26T14:28:22.521Z,20.80
2022-10-26T14:30:52.300Z,20.80
2022-10-26T14:33:29.634Z,20.80
2022-10-26T14:35:58.862Z,20.70
2022-10-26T14:38:33.084Z,20.70
2022-10-26T14:41:02.231Z,20.80
2022-10-26T14:43:32.197Z,20.80
2022-10-26T14:46:02.490Z,20.80
2022-10-26T14:48:35.025Z,20.80
2022-10-26T14:51:10.571Z,20.80
2022-10-26T14:53:42.054Z,20.80
2022-10-26T14:56:22.921Z,20.80
2022-10-26T14:58:52.871Z,20.80
2022-10-26T15:01:36.123Z,20.90
2022-10-26T15:04:07.985Z,20.90
2022-10-26T15:06:45.973Z,20.90
2022-10-26T15:09:32.997Z,20.80
2022-10-26T15:12:03.823Z,20.80
2022-10-26T15:14:34.427Z,20.80
2022-10-26T15:17:03.839Z,20.80
2022-10-26T15:19:41.169Z,20.70
2022-10-26T15:22:22.814Z,20.70
2022-10-26T15:24:54.191Z,20.70
2022-10-26T15:27:24.517Z,20.70
2022-10-26T15:30:13.446Z,20.60
2022-10-26T15:32:42.262Z,20.60
2022-10-26T15:35:23.779Z,20.50
2022-10-26T15:37:54.995Z,20.50
2022-10-26T15:42:56.103Z,20.40
2022-10-26T15:45:27.198Z,20.40
2022-10-26T15:47:58.602Z,20.30
2022-10-26T15:50:30.755Z,20.30
2022-10-26T15:53:02.455Z,20.30
2022-10-26T15:55:32.060Z,20.20
2022-10-26T15:58:01.315Z,20.20
2022-10-26T16:00:33.011Z,20.10
2022-10-26T16:03:03.981Z,20.10
2022-10-26T16:05:36.806Z,20.00
2022-10-26T16:08:06.334Z,20.00
2022-10-26T16:10:35.626Z,20.00
2022-10-26T16:13:04.688Z,20.00
2022-10-26T16:15:33.927Z,19.90
2022-10-26T16:18:03.000Z,19.90
2022-10-26T16:20:35.362Z,19.90
2022-10-26T16:23:06.654Z,19.80
2022-10-26T16:25:42.313Z,19.80
2022-10-26T16:28:13.541Z,19.70
2022-10-26T16:30:43.038Z,19.70
2022-10-26T16:33:12.207Z,19.70
2022-10-26T16:35:42.593Z,19.70
2022-10-26T16:38:11.627Z,19.70
2022-10-26T16:40:42.503Z,19.70
2022-10-26T16:43:11.510Z,19.70
2022-10-26T16:45:40.906Z,19.70
2022-10-26T16:48:14.681Z,19.70
2022-10-26T16:50:44.994Z,19.70
2022-10-26T16:53:13.999Z,19.60
2022-10-26T16:55:44.049Z,19.60
2022-10-26T16:58:12.948Z,19.60
2022-10-26T17:00:42.319Z,19.60
2022-10-26T17:03:11.129Z,19.60
2022-10-26T17:05:41.110Z,19.50
2022-10-26T17:08:11.351Z,19.50
2022-10-26T17:10:40.348Z,19.50
2022-10-26T17:13:09.384Z,19.40
2022-10-26T17:15:38.532Z,19.40
2022-10-26T17:18:10.613Z,19.40
2022-10-26T17:20:40.089Z,19.40
2022-10-26T17:23:09.222Z,19.40
2022-10-26T17:25:39.434Z,19.40
2022-10-26T17:28:08.042Z,19.40
2022-10-26T17:30:37.149Z,19.30
2022-10-26T17:33:06.723Z,19.30
2022-10-26T17:35:36.186Z,19.30
2022-10-26T17:38:05.610Z,19.30
2022-10-26T17:40:34.579Z,19.30
2022-10-26T17:43:04.787Z,19.30
2022-10-26T17:45:33.743Z,19.30
2022-10-26T17:48:02.871Z,19.30
2022-10-26T17:50:32.949Z,19.30
2022-10-26T17:53:02.315Z,19.20
2022-10-26T17:55:32.255Z,19.20
2022-10-26T17:58:01.404Z,19.20
2022-10-26T18:00:33.251Z,19.20
2022-10-26T18:03:02.601Z,19.20
2022-10-26T18:05:32.447Z,19.20
2022-10-26T18:08:01.358Z,19.10
2022-10-26T18:10:37.882Z,19.10
2022-10-26T18:13:07.689Z,19.10
2022-10-26T18:15:38.319Z,19.10
2022-10-26T18:18:07.776Z,19.10
2022-10-26T18:20:36.941Z,19.10
2022-10-26T18:23:06.326Z,19.00
2022-10-26T18:25:36.130Z,19.00
2022-10-26T18:28:05.656Z,19.00
2022-10-26T18:30:35.267Z,19.00
2022-10-26T18:33:05.909Z,19.00
2022-10-26T18:35:34.898Z,19.00
2022-10-26T18:38:04.109Z,19.00
2022-10-26T18:40:34.249Z,19.00
2022-10-26T18:43:03.317Z,19.00
2022-10-26T18:45:33.409Z,18.90
2022-10-26T18:48:02.710Z,18.90
2022-10-26T18:50:36.395Z,18.90
2022-10-26T18:53:07.093Z,18.80
2022-10-26T18:55:36.086Z,18.80
2022-10-26T18:58:04.998Z,18.80
2022-10-26T19:00:34.927Z,18.80
2022-10-26T19:03:05.339Z,18.70
2022-10-26T19:05:38.983Z,18.70
2022-10-26T19:08:09.036Z,18.70
2022-10-26T19:10:37.943Z,18.60
2022-10-26T19:13:08.751Z,18.60
2022-10-26T19:15:37.892Z,18.50
2022-10-26T19:18:07.054Z,18.50
2022-10-26T19:20:38.695Z,18.50
2022-10-26T19:23:08.558Z,18.50
2022-10-26T19:25:37.716Z,18.50
2022-10-26T19:28:06.744Z,18.50
2022-10-26T19:30:39.599Z,18.40
2022-10-26T19:33:08.545Z,18.40
2022-10-26T19:35:38.821Z,18.40
2022-10-26T19:38:08.325Z,18.40
2022-10-26T19:40:37.271Z,18.40
2022-10-26T19:43:06.735Z,18.40
2022-10-26T19:45:37.666Z,18.40
2022-10-26T19:48:07.194Z,18.40
2022-10-26T19:50:36.248Z,18.40
2022-10-26T19:53:06.651Z,18.40
2022-10-26T19:55:35.984Z,18.50
2022-10-26T19:58:04.876Z,18.50
2022-10-26T20:00:36.558Z,18.50
2022-10-26T20:03:06.479Z,18.50
2022-10-26T20:05:35.603Z,18.50
2022-10-26T20:08:07.831Z,18.50
2022-10-26T20:10:41.100Z,18.50
2022-10-26T20:13:10.959Z,18.50
2022-10-26T20:15:40.362Z,18.50
2022-10-26T20:18:10.793Z,18.50
2022-10-26T20:21:08.750Z,18.50
2022-10-26T20:23:39.019Z,18.50
2022-10-26T20:26:08.336Z,18.50
2022-10-26T20:28:37.318Z,18.50
2022-10-26T20:31:06.504Z,18.50
2022-10-26T20:33:35.745Z,18.50
2022-10-26T20:36:04.844Z,18.50
2022-10-26T20:38:34.522Z,18.40
2022-10-26T20:41:07.910Z,18.40
2022-10-26T20:43:40.397Z,18.40
2022-10-26T20:46:12.239Z,18.40
2022-10-26T20:48:41.921Z,18.40
2022-10-26T20:51:19.789Z,18.40
2022-10-26T20:53:56.618Z,18.40
2022-10-26T20:56:28.222Z,18.40
2022-10-26T20:58:58.775Z,18.40
2022-10-26T21:01:29.725Z,18.40
2022-10-26T21:04:00.703Z,18.40
2022-10-26T21:06:30.295Z,18.30
2022-10-26T21:08:59.328Z,18.30
2022-10-26T21:11:29.853Z,18.30
2022-10-26T21:14:00.645Z,18.30
2022-10-26T21:16:29.922Z,18.30
2022-10-26T21:19:00.183Z,18.30
2022-10-26T21:21:29.063Z,18.30
2022-10-26T21:23:58.239Z,18.30
2022-10-26T21:26:28.861Z,18.30
2022-10-26T21:28:57.805Z,18.30
2022-10-26T21:31:27.051Z,18.30
2022-10-26T21:33:56.030Z,18.30
2022-10-26T21:36:25.019Z,18.30
2022-10-26T21:38:53.846Z,18.30
2022-10-26T21:44:03.404Z,18.30
2022-10-26T21:46:39.084Z,18.20
2022-10-26T21:49:08.284Z,18.20
2022-10-26T21:51:37.196Z,18.20
2022-10-26T21:54:06.272Z,18.20
2022-10-26T21:56:35.208Z,18.20
2022-10-26T21:59:05.817Z,18.20
2022-10-26T22:01:34.809Z,18.20
2022-10-26T22:04:03.698Z,18.20
2022-10-26T22:06:32.596Z,18.20
2022-10-26T22:09:01.766Z,18.20
2022-10-26T22:11:31.370Z,18.10
2022-10-26T22:14:00.114Z,18.10
2022-10-26T22:16:31.658Z,18.10
2022-10-26T22:19:04.536Z,18.10
2022-10-26T22:21:35.843Z,18.10
2022-10-26T22:24:06.067Z,18.10
2022-10-26T22:26:36.744Z,18.10
2022-10-26T22:29:06.059Z,18.00
2022-10-26T22:31:39.962Z,18.00
2022-10-26T22:34:14.528Z,18.00
2022-10-26T22:36:43.734Z,18.00
2022-10-26T22:39:12.547Z,17.90
2022-10-26T22:41:41.278Z,17.90
2022-10-26T22:44:10.328Z,17.90
2022-10-26T22:46:40.736Z,17.90
2022-10-26T22:49:09.515Z,17.80
2022-10-26T22:51:38.242Z,17.80
2022-10-26T22:54:07.145Z,17.80
2022-10-26T22:56:37.241Z,17.80
2022-10-26T22:59:07.606Z,17.70
2022-10-26T23:01:41.644Z,17.70
2022-10-26T23:04:12.766Z,17.70
2022-10-26T23:06:42.279Z,17.70
2022-10-26T23:09:11.173Z,17.70
2022-10-26T23:11:40.189Z,17.60
2022-10-26T23:14:10.751Z,17.60
2022-10-26T23:16:41.149Z,17.50
2022-10-26T23:19:10.615Z,17.50
2022-10-26T23:21:39.795Z,17.40
2022-10-26T23:24:09.068Z,17.40
2022-10-26T23:26:37.905Z,17.30
2022-10-26T23:29:06.996Z,17.30
2022-10-26T23:31:36.079Z,17.30
2022-10-26T23:34:06.440Z,17.20
2022-10-26T23:36:36.002Z,17.20
2022-10-26T23:39:05.111Z,17.20
2022-10-26T23:41:34.107Z,17.10
2022-10-26T23:44:03.059Z,17.10
2022-10-26T23:46:31.919Z,17.10
2022-10-26T23:49:00.953Z,17.10
2022-10-26T23:51:31.207Z,17.00
2022-10-26T23:53:59.863Z,17.00
2022-10-26T23:56:28.926Z,17.00
2022-10-26T23:58:57.769Z,17.00
